createdAt,value
2023-02-26T00:10:09.340Z,0.80
2023-02-26T00:28:47.750Z,1.40
2023-02-26T00:47:26.181Z,0.50
2023-02-26T01:06:04.999Z,0.60
2023-02-26T01:24:43.666Z,0.40
2023-02-26T01:43:24.676Z,0.30
2023-02-26T02:02:02.415Z,0.50
2023-02-26T02:20:44.251Z,1.50
2023-02-26T02:39:18.351Z,0.50
2023-02-26T03:53:55.730Z,0.60
2023-02-26T04:12:36.335Z,0.90
2023-02-26T04:31:13.495Z,0.50
2023-02-26T04:49:55.827Z,0.60
2023-02-26T05:08:32.005Z,0.60
2023-02-26T05:27:10.503Z,0.50
2023-02-26T05:45:51.083Z,0.60
2023-02-26T06:04:28.331Z,0.70
2023-02-26T06:23:08.064Z,1.20
2023-02-26T06:41:48.472Z,0.70
2023-02-26T07:00:27.910Z,3.00
2023-02-26T07:19:07.581Z,8.80
2023-02-26T07:56:29.345Z,4.40
2023-02-26T08:15:09.033Z,6.00
2023-02-26T08:33:49.929Z,4.60
2023-02-26T08:52:29.775Z,3.40
2023-02-26T09:11:10.218Z,1.30
2023-02-26T09:48:34.025Z,1.70
2023-02-26T10:07:17.715Z,1.50
2023-02-26T10:25:54.386Z,1.20
2023-02-26T10:44:32.434Z,3.30
2023-02-26T11:03:11.876Z,1.10
2023-02-26T11:21:47.145Z,2.00
2023-02-26T11:40:22.585Z,0.40
2023-02-26T12:17:41.012Z,1.20
2023-02-26T12:36:21.226Z,1.70
2023-02-26T13:13:34.341Z,2.60
2023-02-26T13:50:52.874Z,1.10
2023-02-26T14:09:25.265Z,1.60
2023-02-26T14:28:01.871Z,2.00
2023-02-26T14:46:37.888Z,1.40
2023-02-26T15:23:52.696Z,1.50
2023-02-26T15:42:28.888Z,8.60
2023-02-26T16:01:04.997Z,4.50
2023-02-26T16:19:41.932Z,2.20
2023-02-26T16:38:25.222Z,4.20
2023-02-26T17:15:31.863Z,3.90
2023-02-26T17:34:10.097Z,3.00
2023-02-26T17:52:44.597Z,5.40
2023-02-26T18:11:21.005Z,4.30
2023-02-26T18:29:58.100Z,11.20
2023-02-26T18:48:35.765Z,10.50
2023-02-26T19:07:12.952Z,5.60
2023-02-26T19:25:56.182Z,7.40
2023-02-26T19:44:28.800Z,2.30
2023-02-26T20:40:17.592Z,1.80
2023-02-26T20:58:55.531Z,1.20
2023-02-26T21:17:34.266Z,1.50
2023-02-26T21:36:07.785Z,3.80
2023-02-26T21:54:45.317Z,1.30
2023-02-26T22:13:23.289Z,3.10
2023-02-26T22:32:00.523Z,2.70
2023-02-26T22:50:42.131Z,1.60
2023-02-26T23:09:14.903Z,2.10
2023-02-26T23:46:28.890Z,5.90
